Time;durP1;ratioP1;P1;durP2;ratioP2;P2;SDS_P1;SDS_P2;PMS_P1;PMS_P2;Temp;Humidity;BMP_temperature;BMP_pressure;BME280_temperature;BME280_humidity;BME280_pressure;Samples;Min_cycle;Max_cycle;Signal;HPM_P1;HPM_P2
2020/12/24 00:00:57;;;;;;;32.78;22.80;;;8.10;90.00;;;;;;5095960;28;20073;-57
2020/12/24 00:03:22;;;;;;;30.27;23.05;;;8.00;90.10;;;;;;5096118;28;20472;-52
2020/12/24 00:05:48;;;;;;;34.22;24.17;;;8.10;90.00;;;;;;5095747;28;20031;-54
2020/12/24 00:08:14;;;;;;;28.00;19.60;;;8.20;89.60;;;;;;5095744;28;20089;-54
2020/12/24 00:10:40;;;;;;;32.38;21.52;;;8.30;88.80;;;;;;5111098;28;20088;-57
2020/12/24 00:13:06;;;;;;;30.35;19.75;;;8.40;88.50;;;;;;5095788;28;20055;-52
2020/12/24 00:15:31;;;;;;;32.47;21.33;;;8.50;87.50;;;;;;5095588;28;20070;-55
2020/12/24 00:17:57;;;;;;;26.35;19.15;;;8.50;87.20;;;;;;5095634;28;20028;-61
2020/12/24 00:20:23;;;;;;;32.40;21.88;;;8.50;87.40;;;;;;5095634;28;20031;-57
2020/12/24 00:22:48;;;;;;;30.80;20.98;;;8.30;87.80;;;;;;5095390;28;20043;-55
2020/12/24 00:25:14;;;;;;;29.77;21.25;;;8.30;88.00;;;;;;5095586;28;20028;-57
2020/12/24 00:27:40;;;;;;;29.60;21.30;;;8.50;87.40;;;;;;5095409;28;20024;-53
2020/12/24 00:30:06;;;;;;;31.95;22.73;;;8.60;86.70;;;;;;5094468;28;20048;-62
2020/12/24 00:32:32;;;;;;;38.88;26.00;;;8.40;87.20;;;;;;5095237;28;20067;-53
2020/12/24 00:34:58;;;;;;;41.38;26.17;;;8.30;87.40;;;;;;5095369;28;20020;-53
2020/12/24 00:37:24;;;;;;;34.63;20.92;;;8.30;87.50;;;;;;5095242;28;20496;-61
2020/12/24 00:39:49;;;;;;;28.23;19.85;;;8.20;87.40;;;;;;5093208;28;20433;-58
2020/12/24 00:42:15;;;;;;;26.58;16.23;;;8.10;87.70;;;;;;5092898;28;20040;-52
2020/12/24 00:44:41;;;;;;;28.15;19.90;;;8.00;88.10;;;;;;5093212;28;20075;-50
2020/12/24 00:47:06;;;;;;;29.27;19.17;;;7.90;88.60;;;;;;5093115;28;20036;-52
2020/12/24 00:49:32;;;;;;;26.63;17.48;;;7.80;89.40;;;;;;5093128;28;20059;-55
2020/12/24 00:51:58;;;;;;;26.67;17.38;;;7.60;90.10;;;;;;5092595;28;20067;-56
2020/12/24 00:54:24;;;;;;;26.73;19.48;;;7.60;90.20;;;;;;5092712;28;20083;-57
2020/12/24 00:56:49;;;;;;;24.25;17.13;;;7.80;89.70;;;;;;5092725;28;20032;-57
2020/12/24 00:59:15;;;;;;;24.75;17.42;;;8.00;88.70;;;;;;5092627;28;20024;-51
2020/12/24 01:01:41;;;;;;;23.00;16.65;;;8.10;88.20;;;;;;5092678;28;20094;-59
2020/12/24 01:04:07;;;;;;;25.98;18.35;;;8.10;88.10;;;;;;5092758;28;20024;-54
2020/12/24 01:06:32;;;;;;;25.33;18.67;;;8.00;88.40;;;;;;5058979;28;20043;-52
2020/12/24 01:08:59;;;;;;;28.70;19.00;;;7.90;88.90;;;;;;5092638;28;20036;-57
2020/12/24 01:11:28;;;;;;;27.65;18.52;;;8.00;88.80;;;;;;5092357;28;20066;-51
2020/12/24 01:13:55;;;;;;;28.00;18.67;;;7.90;89.10;;;;;;5093905;28;20137;-57
2020/12/24 01:16:20;;;;;;;25.92;16.50;;;7.80;89.40;;;;;;5094649;28;20099;-61
2020/12/24 01:18:47;;;;;;;25.55;18.90;;;7.80;90.00;;;;;;5109647;28;20463;-60
2020/12/24 01:21:13;;;;;;;29.88;20.10;;;7.80;89.90;;;;;;5094304;28;20112;-54
2020/12/24 01:23:39;;;;;;;24.00;17.65;;;7.70;90.00;;;;;;5094349;28;20065;-58
2020/12/24 01:26:08;;;;;;;20.17;15.48;;;7.80;89.60;;;;;;5109521;28;20043;-57
2020/12/24 01:28:33;;;;;;;21.42;13.40;;;7.90;89.00;;;;;;5094174;28;20066;-52
2020/12/24 01:30:59;;;;;;;18.25;12.63;;;8.00;89.00;;;;;;5094162;28;20454;-56
2020/12/24 01:33:26;;;;;;;21.45;15.20;;;8.00;88.70;;;;;;5094536;28;20077;-57
2020/12/24 01:35:52;;;;;;;20.73;14.18;;;8.00;88.40;;;;;;5094067;28;20414;-56
2020/12/24 01:38:18;;;;;;;19.42;13.23;;;8.00;88.60;;;;;;5094094;28;20020;-53
2020/12/24 01:40:45;;;;;;;20.95;13.25;;;8.00;88.20;;;;;;5091550;28;20129;-53
2020/12/24 01:43:10;;;;;;;21.17;12.95;;;8.20;87.80;;;;;;5094017;28;20487;-58
2020/12/24 01:45:36;;;;;;;16.27;10.75;;;8.30;87.10;;;;;;5109232;28;20032;-54
2020/12/24 01:48:02;;;;;;;15.98;8.85;;;8.30;87.00;;;;;;5092095;28;20039;-58
2020/12/24 01:50:28;;;;;;;16.45;10.82;;;8.30;86.80;;;;;;5093824;28;20436;-60
2020/12/24 01:52:56;;;;;;;17.60;9.85;;;8.50;86.50;;;;;;5093980;28;20036;-59
2020/12/24 01:55:23;;;;;;;12.90;9.25;;;8.70;85.60;;;;;;5093625;28;20058;-58
2020/12/24 01:57:52;;;;;;;14.57;8.95;;;8.70;85.10;;;;;;5111963;28;20035;-56
2020/12/24 02:00:18;;;;;;;14.30;10.18;;;8.70;85.00;;;;;;5077983;28;20426;-56
2020/12/24 02:02:44;;;;;;;17.10;10.50;;;8.70;84.90;;;;;;5112007;28;20054;-58
2020/12/24 02:05:10;;;;;;;13.45;9.00;;;8.70;84.90;;;;;;5112046;28;20028;-53
2020/12/24 02:07:36;;;;;;;14.32;9.88;;;8.60;85.10;;;;;;5111815;28;20096;-56
2020/12/24 02:10:03;;;;;;;16.42;10.23;;;8.70;85.10;;;;;;5111773;28;20051;-56
2020/12/24 02:12:29;;;;;;;15.05;10.98;;;8.60;85.20;;;;;;5111879;28;20131;-56
2020/12/24 02:14:54;;;;;;;11.80;8.80;;;8.60;85.30;;;;;;5112038;28;20111;-56
2020/12/24 02:17:20;;;;;;;13.25;7.85;;;8.60;85.30;;;;;;5111744;28;20043;-56
2020/12/24 02:19:46;;;;;;;11.45;9.23;;;8.60;85.50;;;;;;5111804;28;20024;-59
2020/12/24 02:22:12;;;;;;;12.77;8.48;;;8.50;85.80;;;;;;5050969;28;20036;-55
2020/12/24 02:24:44;;;;;;;11.00;7.88;;;8.40;86.10;;;;;;5051070;28;20540;-51
2020/12/24 02:27:11;;;;;;;10.10;6.82;;;8.40;86.20;;;;;;5051026;28;20124;-54
2020/12/24 02:29:37;;;;;;;10.90;7.30;;;8.40;86.20;;;;;;5050853;28;20056;-55
2020/12/24 02:32:04;;;;;;;9.40;7.03;;;8.50;85.80;;;;;;5050926;28;20420;-57
2020/12/24 02:34:29;;;;;;;12.35;7.10;;;8.50;85.40;;;;;;5051052;28;20025;-53
2020/12/24 02:36:55;;;;;;;10.02;7.05;;;8.60;85.10;;;;;;5050963;28;20035;-54
2020/12/24 02:39:21;;;;;;;9.23;6.25;;;8.60;84.90;;;;;;5034193;28;20036;-54
2020/12/24 02:41:47;;;;;;;9.85;7.03;;;8.70;84.80;;;;;;5050986;28;20531;-53
2020/12/24 02:44:12;;;;;;;10.15;6.00;;;8.80;84.60;;;;;;5050948;28;20159;-54
2020/12/24 02:46:40;;;;;;;8.10;6.10;;;8.90;84.10;;;;;;5001427;28;20040;-54
2020/12/24 02:49:06;;;;;;;8.48;6.03;;;9.00;83.70;;;;;;5034219;28;20037;-60
2020/12/24 02:51:32;;;;;;;9.35;5.72;;;9.00;83.20;;;;;;5051269;28;20381;-55
2020/12/24 02:53:58;;;;;;;10.30;6.75;;;9.00;83.20;;;;;;5090059;28;20059;-57
2020/12/24 02:56:23;;;;;;;8.68;5.50;;;8.90;83.30;;;;;;5097135;28;20106;-53
2020/12/24 02:58:49;;;;;;;7.18;4.88;;;9.00;83.30;;;;;;5094980;28;20044;-57
2020/12/24 03:01:15;;;;;;;10.48;7.32;;;9.00;83.00;;;;;;5095145;28;20040;-57
2020/12/24 03:03:41;;;;;;;8.88;5.95;;;9.10;82.80;;;;;;5095189;28;20507;-58
2020/12/24 03:06:06;;;;;;;8.60;5.35;;;9.10;82.40;;;;;;5061342;28;20036;-55
2020/12/24 03:08:32;;;;;;;7.30;4.90;;;9.20;82.30;;;;;;5094696;28;20047;-55
2020/12/24 03:10:58;;;;;;;6.97;4.88;;;9.30;81.70;;;;;;5094667;28;20036;-57
2020/12/24 03:13:24;;;;;;;8.27;5.15;;;9.50;81.10;;;;;;5061031;28;20028;-58
2020/12/24 03:15:49;;;;;;;5.95;4.88;;;9.60;80.50;;;;;;5094639;28;20020;-55
2020/12/24 03:18:16;;;;;;;6.40;4.82;;;9.70;80.20;;;;;;5094597;28;20123;-53
2020/12/24 03:20:42;;;;;;;9.15;5.20;;;9.70;80.00;;;;;;5077735;28;20530;-50
2020/12/24 03:23:08;;;;;;;6.47;4.78;;;9.70;80.00;;;;;;5077016;28;20044;-54
2020/12/24 03:25:33;;;;;;;7.63;5.20;;;9.60;79.90;;;;;;5094338;28;20036;-55
2020/12/24 03:27:59;;;;;;;6.75;4.78;;;9.70;79.80;;;;;;5060757;28;20044;-57
2020/12/24 03:30:25;;;;;;;6.63;4.82;;;9.70;79.70;;;;;;5095818;28;20438;-55
2020/12/24 03:32:51;;;;;;;6.78;4.70;;;9.70;79.50;;;;;;5077431;28;20083;-50
2020/12/24 03:35:16;;;;;;;6.50;4.68;;;9.80;79.30;;;;;;5096335;28;20495;-55
2020/12/24 03:37:42;;;;;;;6.53;4.28;;;9.80;79.10;;;;;;5094568;28;20091;-57
2020/12/24 03:40:08;;;;;;;7.53;5.07;;;9.70;79.10;;;;;;5095371;28;20038;-57
2020/12/24 03:42:35;;;;;;;6.95;3.90;;;9.70;79.40;;;;;;5111461;28;20035;-54
2020/12/24 03:45:00;;;;;;;7.78;4.13;;;9.60;79.70;;;;;;5094408;28;20040;-58
2020/12/24 03:47:26;;;;;;;6.40;4.28;;;9.80;79.40;;;;;;5096268;28;20047;-51
2020/12/24 03:49:52;;;;;;;5.53;4.47;;;9.70;79.10;;;;;;5096049;28;20028;-58
2020/12/24 03:52:17;;;;;;;6.15;5.15;;;9.70;79.30;;;;;;5094284;28;20055;-54
2020/12/24 03:54:43;;;;;;;7.07;4.78;;;9.70;79.30;;;;;;5094158;28;20047;-55
2020/12/24 03:57:09;;;;;;;7.97;4.50;;;9.60;79.40;;;;;;5060499;28;20039;-54
2020/12/24 03:59:34;;;;;;;7.07;4.18;;;9.60;79.70;;;;;;5095824;28;20078;-60
2020/12/24 04:02:00;;;;;;;8.38;4.47;;;9.60;79.60;;;;;;5095844;28;20028;-54
2020/12/24 04:04:26;;;;;;;6.10;4.25;;;9.50;80.20;;;;;;5094991;28;20020;-49
2020/12/24 04:06:52;;;;;;;5.35;4.07;;;9.50;80.40;;;;;;5093945;28;20428;-56
2020/12/24 04:09:17;;;;;;;5.18;3.78;;;9.50;80.20;;;;;;5094105;28;20044;-53
2020/12/24 04:11:43;;;;;;;5.97;3.95;;;9.50;80.10;;;;;;5095647;28;20036;-57
2020/12/24 04:14:09;;;;;;;8.27;3.92;;;9.50;80.00;;;;;;5095762;28;20110;-54
2020/12/24 04:16:35;;;;;;;6.65;4.97;;;9.50;79.90;;;;;;5095527;28;20139;-55
2020/12/24 04:19:00;;;;;;;6.75;4.43;;;9.50;79.80;;;;;;5095716;28;20081;-55
2020/12/24 04:21:26;;;;;;;6.53;4.40;;;9.40;80.00;;;;;;5095451;28;20032;-53
2020/12/24 04:23:52;;;;;;;6.53;4.00;;;9.50;79.90;;;;;;5095563;28;20472;-57
2020/12/24 04:26:21;;;;;;;5.72;4.15;;;9.50;80.10;;;;;;5095493;28;20066;-50
2020/12/24 04:28:48;;;;;;;6.57;4.55;;;9.50;80.10;;;;;;5095216;28;20051;-54
2020/12/24 04:31:14;;;;;;;6.00;4.18;;;9.30;80.40;;;;;;5095432;28;20035;-56
2020/12/24 04:33:41;;;;;;;5.93;4.15;;;9.70;80.80;;;;;;5095374;28;20024;-55
2020/12/24 04:36:06;;;;;;;6.82;4.63;;;9.40;80.70;;;;;;5094529;28;20036;-52
2020/12/24 04:38:33;;;;;;;5.43;3.60;;;9.40;80.60;;;;;;5095003;28;20039;-55
2020/12/24 04:41:00;;;;;;;4.85;3.75;;;9.40;80.40;;;;;;5095173;28;20085;-57
2020/12/24 04:43:27;;;;;;;5.97;4.32;;;9.40;80.30;;;;;;5095098;28;20552;-57
2020/12/24 04:45:53;;;;;;;4.75;3.60;;;9.40;80.10;;;;;;5094773;28;20034;-55
2020/12/24 04:48:19;;;;;;;5.72;3.22;;;9.50;80.00;;;;;;5095028;28;20059;-56
2020/12/24 04:50:52;;;;;;;3.92;2.53;;;9.50;80.10;;;;;;5094818;28;20032;-53
2020/12/24 04:53:19;;;;;;;5.57;3.33;;;9.50;80.20;;;;;;5094864;28;20024;-52
2020/12/24 04:55:45;;;;;;;4.75;3.28;;;9.60;79.90;;;;;;5094799;28;20085;-57
2020/12/24 04:58:11;;;;;;;4.18;2.75;;;9.60;79.50;;;;;;5094836;28;20048;-57
2020/12/24 05:00:39;;;;;;;4.32;2.83;;;9.70;79.60;;;;;;5094709;28;20411;-55
2020/12/24 05:03:08;;;;;;;4.72;2.92;;;9.60;79.80;;;;;;5088039;28;20123;-57
2020/12/24 05:05:35;;;;;;;3.63;2.60;;;9.70;79.90;;;;;;5092820;28;20143;-55
2020/12/24 05:08:04;;;;;;;6.32;3.35;;;9.70;79.70;;;;;;5109855;28;20032;-59
2020/12/24 05:10:30;;;;;;;5.57;3.63;;;9.60;79.90;;;;;;5094593;28;20038;-57
2020/12/24 05:12:57;;;;;;;5.72;3.72;;;9.60;80.00;;;;;;5094340;28;20111;-59
2020/12/24 05:15:31;;;;;;;5.20;3.17;;;9.60;79.90;;;;;;5109594;28;20500;-59
2020/12/24 05:18:15;;;;;;;6.47;4.05;;;9.60;79.80;;;;;;5094370;28;20432;-60
2020/12/24 05:20:41;;;;;;;15.75;8.55;;;9.60;80.00;;;;;;5094509;28;20357;-57
2020/12/24 05:23:12;;;;;;;8.27;5.30;;;9.60;79.90;;;;;;5094421;28;20035;-59
2020/12/24 05:25:37;;;;;;;7.80;4.55;;;9.60;79.90;;;;;;5094236;28;20032;-55
2020/12/24 05:28:03;;;;;;;16.65;8.27;;;9.70;79.60;;;;;;5109210;28;20080;-51
2020/12/24 05:30:32;;;;;;;4.80;3.00;;;9.80;79.40;;;;;;5094149;28;20111;-60
2020/12/24 05:32:59;;;;;;;6.68;3.58;;;9.80;79.20;;;;;;5075542;28;20043;-52
2020/12/24 05:35:27;;;;;;;5.70;3.03;;;9.80;79.60;;;;;;5094157;28;20028;-57
2020/12/24 05:37:53;;;;;;;6.47;3.40;;;9.80;78.90;;;;;;5093995;28;20067;-57
2020/12/24 05:40:22;;;;;;;4.90;3.25;;;9.90;78.80;;;;;;5094195;28;20031;-53
2020/12/24 05:42:58;;;;;;;5.22;3.58;;;9.90;78.80;;;;;;5058038;28;20503;-58
2020/12/24 05:45:27;;;;;;;7.78;4.55;;;9.90;79.30;;;;;;5058174;28;20127;-56
2020/12/24 05:48:11;;;;;;;11.68;6.60;;;9.90;78.70;;;;;;5091865;28;20052;-51
2020/12/24 05:50:38;;;;;;;8.43;5.28;;;9.90;78.70;;;;;;5090585;28;20036;-59
2020/12/24 05:53:11;;;;;;;11.48;6.05;;;9.90;78.90;;;;;;5090378;28;20523;-55
2020/12/24 05:55:40;;;;;;;6.63;3.38;;;9.90;79.30;;;;;;5090498;28;20040;-55
2020/12/24 05:58:09;;;;;;;7.15;3.92;;;9.90;79.10;;;;;;5090331;28;20070;-51
2020/12/24 06:00:40;;;;;;;6.53;3.97;;;10.00;78.90;;;;;;5090455;28;20039;-58
2020/12/24 06:03:10;;;;;;;15.82;7.88;;;10.00;78.90;;;;;;5089919;28;20501;-51
2020/12/24 06:05:57;;;;;;;20.33;10.02;;;10.10;78.80;;;;;;5090313;28;20430;-54
2020/12/24 06:08:28;;;;;;;31.52;16.65;;;10.10;78.60;;;;;;5056484;28;20507;-47
2020/12/24 06:11:03;;;;;;;14.80;8.45;;;10.10;78.50;;;;;;5090087;28;20020;-52
2020/12/24 06:13:41;;;;;;;14.68;8.40;;;10.10;78.60;;;;;;5090964;28;20040;-51
2020/12/24 06:16:09;;;;;;;11.35;7.00;;;10.20;78.40;;;;;;5092275;28;20028;-51
2020/12/24 06:18:37;;;;;;;10.00;7.05;;;10.20;78.00;;;;;;5090402;28;20127;-51
2020/12/24 06:21:10;;;;;;;11.85;8.02;;;10.30;78.00;;;;;;5107355;28;20028;-54
2020/12/24 06:23:38;;;;;;;10.95;8.10;;;10.30;78.10;;;;;;5092225;28;20032;-57
2020/12/24 06:26:07;;;;;;;11.48;7.60;;;10.30;78.00;;;;;;5091950;28;20487;-49
2020/12/24 06:28:34;;;;;;;9.85;6.28;;;10.30;77.90;;;;;;5092033;28;20048;-53
2020/12/24 06:31:01;;;;;;;6.32;4.50;;;10.40;77.90;;;;;;5092199;28;20021;-54
2020/12/24 06:33:28;;;;;;;4.25;2.80;;;10.40;77.70;;;;;;5092290;28;20451;-56
2020/12/24 06:35:54;;;;;;;5.10;3.15;;;10.40;77.70;;;;;;5092318;28;20531;-56
2020/12/24 06:38:45;;;;;;;4.00;2.70;;;10.40;77.60;;;;;;5107102;28;20040;-52
2020/12/24 06:41:27;;;;;;;3.50;2.70;;;10.50;77.60;;;;;;5092245;28;20028;-53
2020/12/24 06:43:53;;;;;;;4.05;2.40;;;10.50;77.50;;;;;;5091821;28;20032;-54
2020/12/24 06:46:19;;;;;;;4.18;3.03;;;10.50;77.50;;;;;;5106940;28;20048;-54
2020/12/24 06:49:04;;;;;;;6.10;3.40;;;10.50;77.50;;;;;;5092301;28;20062;-53
2020/12/24 06:51:59;;;;;;;4.35;2.70;;;10.60;76.90;;;;;;5092225;28;20032;-52
2020/12/24 06:54:27;;;;;;;4.35;3.30;;;10.80;76.70;;;;;;5049531;28;20049;-54
2020/12/24 06:57:21;;;;;;;5.45;3.75;;;10.90;76.30;;;;;;5032711;28;20090;-55
2020/12/24 06:59:48;;;;;;;5.22;4.15;;;11.10;75.60;;;;;;5049509;28;20037;-53
2020/12/24 07:02:24;;;;;;;6.00;4.18;;;11.60;74.40;;;;;;5049521;28;20083;-54
2020/12/24 07:04:51;;;;;;;7.18;4.55;;;11.80;72.90;;;;;;4990121;28;20043;-52
2020/12/24 07:07:42;;;;;;;8.98;6.32;;;11.90;72.10;;;;;;4990210;28;20174;-55
2020/12/24 07:10:08;;;;;;;12.60;7.55;;;12.30;72.50;;;;;;4989230;28;20537;-53
2020/12/24 07:12:35;;;;;;;10.52;7.72;;;12.80;70.30;;;;;;4989771;28;20050;-53
2020/12/24 07:15:41;;;;;;;15.95;9.30;;;13.30;70.70;;;;;;4990129;28;20514;-52
2020/12/24 07:18:11;;;;;;;9.30;5.80;;;13.70;67.30;;;;;;4970547;28;20066;-49
2020/12/24 07:20:38;;;;;;;20.00;12.00;;;14.00;64.80;;;;;;4970626;28;20043;-51
2020/12/24 07:23:04;;;;;;;19.05;12.93;;;14.30;64.90;;;;;;4970408;28;20117;-52
2020/12/24 07:25:34;;;;;;;9.23;7.25;;;14.30;63.00;;;;;;4970157;28;20046;-50
2020/12/24 07:28:00;;;;;;;8.48;3.95;;;14.00;64.40;;;;;;4970284;28;20042;-51
2020/12/24 07:30:26;;;;;;;6.20;4.03;;;13.70;64.30;;;;;;4963765;28;20039;-52
2020/12/24 07:32:54;;;;;;;5.45;4.30;;;13.80;64.60;;;;;;4951213;29;20035;-51
2020/12/24 07:35:20;;;;;;;6.00;4.38;;;13.90;64.90;;;;;;4962518;28;20474;-51
2020/12/24 07:37:47;;;;;;;6.80;4.78;;;14.00;64.80;;;;;;4989814;28;20027;-52
2020/12/24 07:40:14;;;;;;;6.00;4.25;;;13.70;64.90;;;;;;4992684;28;20483;-52
2020/12/24 07:42:39;;;;;;;8.27;5.97;;;13.60;65.50;;;;;;4993371;28;20471;-51
2020/12/24 07:45:05;;;;;;;8.27;5.45;;;13.40;66.30;;;;;;4993200;28;20053;-52
2020/12/24 07:47:31;;;;;;;7.65;6.47;;;13.60;66.50;;;;;;5009236;28;20046;-52
2020/12/24 07:49:57;;;;;;;6.82;5.75;;;14.40;66.30;;;;;;4993265;28;20114;-51
2020/12/24 07:52:23;;;;;;;7.18;5.07;;;14.80;64.20;;;;;;4994063;28;20129;-52
2020/12/24 07:54:49;;;;;;;10.05;6.63;;;15.20;62.90;;;;;;5074791;28;20036;-50
2020/12/24 07:57:21;;;;;;;11.25;7.75;;;15.90;62.00;;;;;;5074280;28;20032;-50
2020/12/24 07:59:48;;;;;;;24.23;13.35;;;16.80;63.10;;;;;;5073160;28;20097;-49
2020/12/24 08:02:13;;;;;;;21.98;12.55;;;17.60;58.40;;;;;;5085110;28;20078;-52
2020/12/24 08:04:39;;;;;;;24.38;14.82;;;17.30;58.00;;;;;;5093863;28;20040;-51
2020/12/24 08:07:06;;;;;;;22.77;13.23;;;17.50;58.10;;;;;;5094354;28;20059;-51
2020/12/24 08:09:31;;;;;;;16.80;10.52;;;17.90;57.20;;;;;;5057731;28;20086;-52
2020/12/24 08:11:59;;;;;;;13.60;8.50;;;18.50;56.50;;;;;;5094595;28;20059;-51
2020/12/24 08:14:30;;;;;;;17.27;11.18;;;18.50;53.90;;;;;;5094450;28;20028;-50
2020/12/24 08:17:32;;;;;;;18.10;11.93;;;18.50;55.40;;;;;;5093395;28;20062;-50
2020/12/24 08:20:09;;;;;;;18.83;12.82;;;18.80;54.70;;;;;;5051638;28;20131;-50
2020/12/24 08:22:46;;;;;;;30.52;20.10;;;19.00;55.00;;;;;;5051899;28;20044;-50
2020/12/24 08:25:15;;;;;;;50.70;32.15;;;19.60;52.40;;;;;;5051864;28;20044;-51
2020/12/24 08:27:42;;;;;;;69.95;35.75;;;20.60;51.40;;;;;;5002043;28;20065;-50
2020/12/24 08:30:09;;;;;;;47.40;16.60;;;21.50;48.80;;;;;;5001877;28;20478;-52
2020/12/24 08:32:37;;;;;;;53.30;22.05;;;21.90;47.60;;;;;;5051590;28;20055;-50
2020/12/24 08:35:11;;;;;;;34.38;21.55;;;21.60;47.00;;;;;;5051671;28;20033;-50
2020/12/24 08:37:37;;;;;;;32.95;20.75;;;20.90;46.60;;;;;;5051490;28;20444;-51
2020/12/24 08:40:25;;;;;;;26.27;18.90;;;20.50;47.00;;;;;;4999214;28;20075;-53
2020/12/24 08:42:58;;;;;;;23.70;15.88;;;19.70;48.80;;;;;;5018003;28;20119;-51
2020/12/24 08:45:24;;;;;;;17.08;12.38;;;18.80;50.40;;;;;;5049895;28;20069;-51
2020/12/24 08:47:50;;;;;;;12.73;8.50;;;18.40;51.90;;;;;;5001146;28;20568;-50
2020/12/24 08:50:31;;;;;;;14.48;9.23;;;18.10;53.00;;;;;;5010927;28;20074;-49
2020/12/24 08:52:57;;;;;;;25.57;16.03;;;17.70;54.30;;;;;;5011302;28;20042;-52
2020/12/24 08:55:27;;;;;;;39.30;20.33;;;17.70;54.50;;;;;;5011406;28;20048;-55
2020/12/24 08:57:53;;;;;;;21.25;15.48;;;17.50;55.10;;;;;;5070888;28;20029;-54
2020/12/24 09:00:19;;;;;;;22.83;17.25;;;17.10;55.70;;;;;;5070180;28;20046;-51
2020/12/24 09:02:45;;;;;;;16.45;10.35;;;16.70;56.70;;;;;;5070287;28;20040;-52
2020/12/24 09:05:11;;;;;;;17.17;10.05;;;16.40;58.00;;;;;;5070190;28;20601;-52
2020/12/24 09:07:42;;;;;;;14.25;9.80;;;16.20;58.90;;;;;;5070076;28;20032;-53
2020/12/24 09:10:20;;;;;;;14.70;10.90;;;16.20;59.80;;;;;;5052715;28;20047;-56
2020/12/24 09:12:54;;;;;;;8.45;5.60;;;16.20;60.10;;;;;;5050571;28;20072;-51
2020/12/24 09:15:25;;;;;;;8.00;5.00;;;16.00;60.20;;;;;;5050551;28;20040;-53
2020/12/24 09:17:53;;;;;;;13.45;7.85;;;16.00;61.20;;;;;;5051026;28;20379;-49
2020/12/24 09:20:33;;;;;;;13.43;7.00;;;16.10;61.20;;;;;;5054323;28;20025;-53
2020/12/24 09:23:01;;;;;;;12.88;7.70;;;16.10;61.30;;;;;;5072238;28;20044;-53
2020/12/24 09:25:53;;;;;;;12.80;6.18;;;16.20;61.20;;;;;;5074273;28;20033;-53
2020/12/24 09:28:26;;;;;;;7.68;5.35;;;16.30;61.00;;;;;;5071868;28;20048;-54
2020/12/24 09:31:00;;;;;;;7.80;5.38;;;16.70;61.70;;;;;;5073644;28;20033;-55
2020/12/24 09:33:27;;;;;;;8.15;5.85;;;17.20;61.50;;;;;;5074084;28;20056;-55
2020/12/24 09:35:53;;;;;;;7.05;4.78;;;17.80;59.20;;;;;;5074069;28;20037;-54
2020/12/24 09:38:19;;;;;;;8.27;5.80;;;18.10;57.50;;;;;;5083625;28;20044;-53
2020/12/24 09:40:45;;;;;;;10.20;8.20;;;18.10;56.40;;;;;;5094030;28;20047;-52
2020/12/24 09:43:11;;;;;;;6.43;4.70;;;18.00;57.00;;;;;;5109311;28;20035;-53
2020/12/24 09:45:37;;;;;;;7.80;4.88;;;18.20;56.50;;;;;;5094117;28;20028;-55
2020/12/24 09:48:03;;;;;;;7.53;4.97;;;18.60;55.80;;;;;;5094017;28;20032;-53
2020/12/24 09:50:29;;;;;;;10.80;8.40;;;18.60;55.50;;;;;;5109054;28;20040;-56
2020/12/24 09:52:55;;;;;;;19.33;11.48;;;19.10;56.70;;;;;;5093977;28;20070;-53
2020/12/24 09:55:21;;;;;;;11.13;7.00;;;19.60;54.10;;;;;;5093776;28;20036;-57
2020/12/24 09:57:46;;;;;;;11.43;7.57;;;19.50;52.00;;;;;;5093532;28;20042;-56
2020/12/24 10:00:13;;;;;;;9.25;7.00;;;19.40;53.80;;;;;;5091782;28;20399;-53
2020/12/24 10:02:38;;;;;;;10.95;9.38;;;19.30;52.50;;;;;;5093053;28;20032;-50
2020/12/24 10:05:05;;;;;;;12.98;10.50;;;19.50;53.10;;;;;;5093645;28;20020;-53
2020/12/24 10:07:32;;;;;;;10.63;8.00;;;19.40;53.00;;;;;;5092949;28;20387;-55
2020/12/24 10:09:58;;;;;;;15.82;9.27;;;19.60;52.40;;;;;;5091369;28;20062;-54
2020/12/24 10:12:26;;;;;;;12.90;8.98;;;19.60;52.90;;;;;;5111464;28;20079;-53
2020/12/24 10:14:53;;;;;;;15.43;7.15;;;20.00;52.10;;;;;;5091118;28;20039;-55
2020/12/24 10:17:20;;;;;;;14.73;7.57;;;20.10;50.70;;;;;;5091315;28;20122;-52
2020/12/24 10:19:46;;;;;;;12.13;7.38;;;20.00;51.00;;;;;;5091216;28;20063;-53
2020/12/24 10:22:14;;;;;;;13.82;8.20;;;19.90;51.00;;;;;;5050483;28;20469;-53
2020/12/24 10:24:40;;;;;;;19.88;7.63;;;19.70;51.30;;;;;;5009282;28;20069;-55
2020/12/24 10:27:13;;;;;;;17.20;6.55;;;19.60;53.30;;;;;;5009895;28;20049;-56
2020/12/24 10:29:39;;;;;;;14.43;5.22;;;19.40;55.00;;;;;;5009764;28;20050;-53
2020/12/24 10:32:05;;;;;;;12.73;5.78;;;19.30;54.40;;;;;;5009720;28;20077;-49
2020/12/24 10:34:31;;;;;;;16.95;6.35;;;19.30;54.20;;;;;;4993465;28;20038;-50
2020/12/24 10:36:57;;;;;;;13.43;6.85;;;19.30;54.50;;;;;;5009651;28;20085;-50
2020/12/24 10:39:23;;;;;;;12.77;9.27;;;19.10;53.80;;;;;;5009757;28;20061;-50
2020/12/24 10:41:50;;;;;;;25.95;18.23;;;19.00;53.20;;;;;;5009589;28;20034;-49
2020/12/24 10:44:17;;;;;;;20.83;14.13;;;18.90;54.70;;;;;;4992875;28;20053;-47
2020/12/24 10:46:44;;;;;;;9.10;7.40;;;19.20;55.40;;;;;;4989930;28;20049;-50
2020/12/24 10:49:09;;;;;;;14.40;10.27;;;19.40;53.10;;;;;;5009398;28;20042;-47
2020/12/24 10:51:35;;;;;;;8.15;5.88;;;19.70;53.80;;;;;;5009709;28;20068;-47
2020/12/24 10:54:01;;;;;;;12.30;8.10;;;19.80;51.50;;;;;;5026060;28;20062;-47
2020/12/24 10:56:27;;;;;;;10.45;7.80;;;20.00;52.30;;;;;;5049222;28;20045;-49
2020/12/24 10:58:53;;;;;;;8.70;7.80;;;20.40;51.80;;;;;;5049245;28;20503;-49
2020/12/24 11:01:19;;;;;;;7.45;5.15;;;20.90;52.20;;;;;;5052954;28;20040;-45
2020/12/24 11:03:47;;;;;;;6.88;4.68;;;21.10;48.60;;;;;;5069138;28;20678;-61
2020/12/24 11:06:21;;;;;;;53.15;28.60;;;20.90;48.00;;;;;;5071799;28;20111;-53
2020/12/24 11:08:48;;;;;;;28.60;16.40;;;20.80;49.10;;;;;;5071590;28;20037;-51
2020/12/24 11:11:14;;;;;;;56.63;30.55;;;20.70;50.00;;;;;;5071607;28;20032;-50
2020/12/24 11:13:41;;;;;;;33.17;19.55;;;20.90;50.40;;;;;;5055886;28;20048;-51
2020/12/24 11:16:07;;;;;;;49.05;33.58;;;21.00;49.60;;;;;;5093508;28;20039;-53
2020/12/24 11:18:34;;;;;;;24.02;17.13;;;21.10;48.50;;;;;;5095840;28;20032;-50
2020/12/24 11:21:00;;;;;;;31.90;20.00;;;20.90;47.90;;;;;;5095641;28;20030;-52
2020/12/24 11:23:25;;;;;;;27.92;16.58;;;20.90;48.80;;;;;;5095600;28;20530;-52
2020/12/24 11:25:51;;;;;;;25.67;14.63;;;20.70;49.50;;;;;;5095660;28;20036;-51
2020/12/24 11:28:17;;;;;;;11.10;7.53;;;20.70;49.30;;;;;;5095131;28;20084;-52
2020/12/24 11:30:43;;;;;;;13.00;8.50;;;20.30;49.40;;;;;;5095066;28;20109;-52
2020/12/24 11:33:08;;;;;;;13.60;10.23;;;20.30;51.40;;;;;;5095431;28;20036;-53
2020/12/24 11:35:34;;;;;;;11.75;7.85;;;20.40;51.10;;;;;;5094398;28;20052;-52
2020/12/24 11:38:00;;;;;;;7.38;5.28;;;20.50;50.80;;;;;;5094110;28;20110;-52
2020/12/24 11:40:26;;;;;;;8.48;6.07;;;20.10;51.00;;;;;;5074851;28;20036;-52
2020/12/24 11:42:51;;;;;;;9.32;6.07;;;20.00;52.30;;;;;;5074778;28;20485;-49
2020/12/24 11:45:17;;;;;;;11.88;7.15;;;20.00;52.50;;;;;;5089658;28;20460;-52
2020/12/24 11:47:43;;;;;;;8.55;5.97;;;20.10;52.70;;;;;;5074842;28;20024;-50
2020/12/24 11:50:09;;;;;;;11.38;7.07;;;20.20;52.60;;;;;;5073736;28;20036;-47
2020/12/24 11:52:36;;;;;;;18.58;11.93;;;20.40;53.10;;;;;;5074549;28;20040;-52
2020/12/24 11:55:03;;;;;;;14.20;8.60;;;20.60;52.80;;;;;;5074739;28;20499;-50
2020/12/24 11:57:29;;;;;;;10.65;7.13;;;20.70;51.10;;;;;;5074663;28;20056;-46
2020/12/24 11:59:55;;;;;;;9.25;6.93;;;20.80;51.00;;;;;;5089392;28;20465;-51
2020/12/24 12:02:21;;;;;;;10.00;7.05;;;20.70;50.70;;;;;;5073352;28;20074;-50
2020/12/24 12:04:46;;;;;;;9.77;7.30;;;20.60;50.60;;;;;;5074534;28;20476;-49
2020/12/24 12:07:12;;;;;;;12.50;8.18;;;20.80;49.40;;;;;;5072181;28;20046;-49
2020/12/24 12:09:38;;;;;;;40.65;26.33;;;20.80;48.60;;;;;;5074500;28;20434;-53
2020/12/24 12:12:03;;;;;;;27.13;15.88;;;20.60;49.90;;;;;;5074413;28;20044;-52
2020/12/24 12:14:29;;;;;;;18.42;11.38;;;20.50;49.60;;;;;;5074343;28;20027;-53
2020/12/24 12:16:55;;;;;;;26.13;16.48;;;20.50;50.20;;;;;;5074459;28;20036;-50
2020/12/24 12:19:21;;;;;;;56.17;31.15;;;20.70;51.10;;;;;;5088853;28;20053;-48
2020/12/24 12:21:46;;;;;;;14.13;9.27;;;20.90;50.70;;;;;;5074038;28;20086;-50
2020/12/24 12:24:12;;;;;;;10.38;7.95;;;21.10;51.10;;;;;;5073285;28;20043;-51
2020/12/24 12:26:38;;;;;;;12.05;9.35;;;21.10;51.40;;;;;;5089081;28;20157;-52
2020/12/24 12:29:04;;;;;;;9.48;4.82;;;20.90;51.90;;;;;;5094074;28;20056;-52
2020/12/24 12:31:30;;;;;;;10.55;8.77;;;20.60;52.70;;;;;;5109007;28;20048;-46
2020/12/24 12:33:56;;;;;;;14.85;7.07;;;20.50;51.60;;;;;;5094187;28;20039;-52
2020/12/24 12:36:23;;;;;;;12.43;6.03;;;20.50;51.70;;;;;;5109058;28;20071;-47
2020/12/24 12:38:50;;;;;;;13.02;8.18;;;20.40;51.70;;;;;;5111994;28;20040;-50
2020/12/24 12:41:17;;;;;;;13.48;6.53;;;20.40;51.70;;;;;;5111883;28;20043;-47
2020/12/24 12:43:44;;;;;;;11.98;6.13;;;20.20;52.90;;;;;;5111743;28;20071;-48
2020/12/24 12:46:10;;;;;;;11.48;5.78;;;20.10;53.70;;;;;;5111831;28;20113;-48